Time;durP1;ratioP1;P1;durP2;ratioP2;P2;SDS_P1;SDS_P2;PMS_P1;PMS_P2;Temp;Humidity;BMP_temperature;BMP_pressure;BME280_temperature;BME280_humidity;BME280_pressure;Samples;Min_cycle;Max_cycle;Signal;HPM_P1;HPM_P2
2023/10/20 00:01:46;;;;;;;6.35;3.65;;;;;;;12.75;93.11;97644.06;4968788;28;20440;-84
2023/10/20 00:04:13;;;;;;;6.45;4.22;;;;;;;12.78;93.14;97635.97;4982897;28;20042;-81
2023/10/20 00:06:40;;;;;;;6.05;3.63;;;;;;;12.56;92.98;97626.09;4983473;28;20054;-84
2023/10/20 00:09:08;;;;;;;5.35;3.83;;;;;;;12.59;92.72;97630.31;4976328;28;20065;-82
2023/10/20 00:11:36;;;;;;;6.20;3.97;;;;;;;12.64;92.92;97630.81;4980414;28;20126;-82
2023/10/20 00:14:03;;;;;;;5.68;3.97;;;;;;;12.64;92.79;97628.19;4977544;28;20053;-82
2023/10/20 00:16:29;;;;;;;7.10;4.05;;;;;;;12.75;93.08;97611.66;4989060;28;20054;-81
2023/10/20 00:18:56;;;;;;;5.80;4.18;;;;;;;12.70;93.03;97618.09;4976500;28;20050;-85
2023/10/20 00:21:24;;;;;;;5.88;4.35;;;;;;;12.79;93.10;97606.09;4983387;28;20050;-82
2023/10/20 00:23:51;;;;;;;6.32;4.20;;;;;;;12.77;93.07;97604.50;4972385;28;20066;-82
2023/10/20 00:26:18;;;;;;;6.32;4.07;;;;;;;12.77;93.03;97605.34;4982270;28;20050;-82
2023/10/20 00:28:45;;;;;;;6.97;4.35;;;;;;;12.74;93.30;97600.28;4976882;28;20125;-82
2023/10/20 00:31:12;;;;;;;6.03;3.95;;;;;;;12.73;93.23;97598.63;4982997;28;20050;-83
2023/10/20 00:33:42;;;;;;;6.28;4.13;;;;;;;12.68;93.14;97596.28;4992537;28;20042;-82
2023/10/20 00:36:09;;;;;;;7.90;4.15;;;;;;;12.66;93.25;97598.19;4978854;28;20050;-82
2023/10/20 00:38:37;;;;;;;5.80;4.03;;;;;;;12.66;93.10;97592.94;4981580;28;20050;-82
2023/10/20 00:41:04;;;;;;;4.82;4.00;;;;;;;12.60;93.08;97597.75;4976970;28;20061;-82
2023/10/20 00:43:40;;;;;;;6.97;4.63;;;;;;;12.57;92.92;97595.34;4982930;28;20053;-82
2023/10/20 00:46:07;;;;;;;6.28;3.92;;;;;;;12.50;92.64;97593.16;4976016;28;20056;-82
2023/10/20 00:48:35;;;;;;;5.22;3.70;;;;;;;12.55;92.55;97594.63;4986505;28;20125;-82
2023/10/20 00:51:05;;;;;;;5.68;3.70;;;;;;;12.58;92.85;97581.25;4962788;28;20073;-82
2023/10/20 00:53:35;;;;;;;5.25;3.97;;;;;;;12.65;92.91;97574.63;4978981;28;20054;-82
2023/10/20 00:56:04;;;;;;;6.35;4.15;;;;;;;12.71;93.07;97576.81;4976994;28;20556;-83
2023/10/20 00:58:31;;;;;;;10.57;4.57;;;;;;;12.74;93.18;97563.44;4978404;28;20137;-82
2023/10/20 01:00:58;;;;;;;7.53;3.83;;;;;;;12.71;92.89;97568.94;4972919;28;20497;-82
2023/10/20 01:03:27;;;;;;;6.53;4.55;;;;;;;12.60;92.78;97559.16;4985359;28;20053;-83
2023/10/20 01:05:54;;;;;;;8.43;5.53;;;;;;;12.62;92.67;97544.09;5002065;28;20050;-86
2023/10/20 01:08:21;;;;;;;7.25;5.10;;;;;;;12.71;93.19;97542.63;4968776;28;20050;-82
2023/10/20 01:10:47;;;;;;;6.53;5.05;;;;;;;12.65;93.23;97553.56;4971294;28;20491;-83
2023/10/20 01:13:15;;;;;;;7.57;5.20;;;;;;;12.60;93.00;97547.78;4975507;28;20050;-82
2023/10/20 01:15:42;;;;;;;8.02;5.22;;;;;;;12.58;93.18;97547.06;4975619;28;20382;-83
2023/10/20 01:18:12;;;;;;;6.60;3.95;;;;;;;12.64;93.20;97533.47;4979898;28;20042;-82
2023/10/20 01:20:39;;;;;;;7.03;4.10;;;;;;;12.61;92.86;97525.78;4984566;28;20560;-82
2023/10/20 01:23:06;;;;;;;5.90;3.80;;;;;;;12.68;92.98;97516.53;4991295;28;20601;-83
2023/10/20 01:25:32;;;;;;;5.50;3.80;;;;;;;12.62;93.17;97517.78;4981790;28;20050;-82
2023/10/20 01:27:59;;;;;;;5.05;3.70;;;;;;;12.51;92.57;97521.19;4975848;28;20124;-82
2023/10/20 01:30:26;;;;;;;5.13;3.80;;;;;;;12.58;92.56;97505.81;4982824;28;20062;-82
2023/10/20 01:32:53;;;;;;;5.15;3.70;;;;;;;12.61;92.65;97494.22;4976218;28;20046;-82
2023/10/20 01:35:20;;;;;;;7.65;3.53;;;;;;;12.58;92.57;97494.44;4986175;28;20095;-82
2023/10/20 01:37:47;;;;;;;4.60;3.50;;;;;;;12.50;92.20;97493.19;4977966;28;20054;-82
2023/10/20 01:40:14;;;;;;;5.15;3.70;;;;;;;12.39;91.75;97493.09;4978588;28;20050;-82
2023/10/20 01:42:41;;;;;;;5.63;3.45;;;;;;;12.42;91.73;97487.63;4980058;28;20042;-83
2023/10/20 01:45:09;;;;;;;5.10;3.75;;;;;;;12.45;91.79;97476.06;4976792;28;20050;-83
2023/10/20 01:47:36;;;;;;;5.07;3.35;;;;;;;12.42;91.60;97489.41;4979433;28;20398;-83
2023/10/20 01:50:04;;;;;;;4.68;3.28;;;;;;;12.42;91.73;97478.91;4975690;28;20081;-82
2023/10/20 01:52:31;;;;;;;4.75;3.70;;;;;;;12.46;91.84;97469.84;4986289;28;20054;-82
2023/10/20 01:54:58;;;;;;;4.38;3.20;;;;;;;12.40;91.70;97465.84;4972141;28;20141;-83
2023/10/20 01:57:25;;;;;;;5.15;3.78;;;;;;;12.45;91.90;97453.22;4985210;28;20056;-82
2023/10/20 01:59:52;;;;;;;5.10;3.53;;;;;;;12.48;91.86;97434.63;4979989;28;20048;-83
2023/10/20 02:02:19;;;;;;;4.90;3.55;;;;;;;12.52;92.07;97411.56;4993896;28;20050;-84
2023/10/20 02:04:46;;;;;;;5.72;3.90;;;;;;;12.53;92.38;97406.19;4975986;28;20050;-82
2023/10/20 02:07:13;;;;;;;4.68;3.65;;;;;;;12.54;92.57;97409.63;4981080;28;20057;-82
2023/10/20 02:09:40;;;;;;;4.63;3.20;;;;;;;12.46;92.56;97422.50;4995230;28;20052;-82
2023/10/20 02:12:07;;;;;;;8.60;4.20;;;;;;;12.46;92.38;97430.41;4982458;28;20051;-82
2023/10/20 02:14:34;;;;;;;8.02;4.35;;;;;;;12.52;92.50;97425.53;4990692;28;20416;-83
2023/10/20 02:17:01;;;;;;;6.75;4.15;;;;;;;12.49;92.60;97409.97;4968711;28;20133;-83
2023/10/20 02:19:28;;;;;;;6.00;4.15;;;;;;;12.53;92.85;97414.06;4974174;28;20116;-82
2023/10/20 02:21:55;;;;;;;4.82;3.45;;;;;;;12.45;92.59;97397.16;4976492;28;20062;-82
2023/10/20 02:24:22;;;;;;;6.32;3.97;;;;;;;12.44;92.58;97387.56;4978702;28;20054;-82
2023/10/20 02:26:50;;;;;;;6.20;4.10;;;;;;;12.44;92.34;97371.78;4979639;28;20057;-82
2023/10/20 02:29:17;;;;;;;5.65;4.13;;;;;;;12.46;92.43;97365.47;4985919;28;20096;-83
2023/10/20 02:31:44;;;;;;;5.18;3.95;;;;;;;12.39;92.22;97371.31;4978250;28;20046;-83
2023/10/20 02:34:11;;;;;;;5.60;3.65;;;;;;;12.39;92.08;97358.97;4975196;28;20053;-82
2023/10/20 02:36:38;;;;;;;5.15;3.92;;;;;;;12.41;92.57;97345.72;4976396;28;20042;-83
2023/10/20 02:39:04;;;;;;;4.75;3.83;;;;;;;12.41;92.43;97330.81;4972363;28;20046;-83
2023/10/20 02:41:31;;;;;;;7.07;4.25;;;;;;;12.44;92.53;97325.31;4980235;28;20075;-82
2023/10/20 02:43:58;;;;;;;5.25;3.65;;;;;;;12.43;92.52;97334.16;4975072;28;20061;-82
2023/10/20 02:46:25;;;;;;;5.07;3.80;;;;;;;12.40;92.65;97344.91;4978274;28;20050;-82
2023/10/20 02:48:52;;;;;;;7.10;4.45;;;;;;;12.40;92.74;97323.84;4972073;28;20050;-83
2023/10/20 02:51:19;;;;;;;6.00;4.50;;;;;;;12.46;92.71;97320.78;4983706;28;20046;-83
2023/10/20 02:53:47;;;;;;;6.57;4.40;;;;;;;12.41;92.49;97320.28;4974018;28;20068;-82
2023/10/20 02:56:15;;;;;;;6.75;4.50;;;;;;;12.42;92.56;97324.56;4979661;28;20129;-82
2023/10/20 02:58:43;;;;;;;6.03;4.05;;;;;;;12.41;92.45;97315.03;4982968;28;20096;-83
2023/10/20 03:01:16;;;;;;;8.48;4.07;;;;;;;12.37;92.36;97297.78;4973605;28;20047;-82
2023/10/20 03:03:43;;;;;;;4.93;3.33;;;;;;;12.36;92.36;97290.84;4963156;28;20137;-82
2023/10/20 03:06:11;;;;;;;4.70;3.80;;;;;;;12.40;92.52;97275.66;4973549;28;20046;-82
2023/10/20 03:08:38;;;;;;;5.00;3.42;;;;;;;12.29;92.29;97268.56;4983902;28;20129;-82
2023/10/20 03:11:06;;;;;;;6.20;4.25;;;;;;;12.36;92.71;97269.81;4975603;28;20109;-82
2023/10/20 03:13:33;;;;;;;5.57;3.55;;;;;;;12.23;92.01;97264.59;4981480;28;20066;-83
2023/10/20 03:16:00;;;;;;;5.88;3.60;;;;;;;12.21;91.78;97260.38;4977705;28;20055;-83
2023/10/20 03:18:28;;;;;;;10.60;6.97;;;;;;;12.24;91.74;97249.66;4981267;28;20046;-84
2023/10/20 03:21:01;;;;;;;8.10;4.82;;;;;;;12.34;92.21;97242.78;4966409;28;20101;-83
2023/10/20 03:23:28;;;;;;;7.15;4.57;;;;;;;12.34;92.42;97235.72;4987733;28;20076;-83
2023/10/20 03:25:55;;;;;;;5.20;3.65;;;;;;;12.29;92.22;97229.97;4970766;28;20077;-82
2023/10/20 03:28:22;;;;;;;4.85;3.67;;;;;;;12.30;92.17;97228.19;4996550;28;20405;-83
2023/10/20 03:30:50;;;;;;;5.03;3.80;;;;;;;12.29;92.09;97242.28;4974325;28;20048;-82
2023/10/20 03:33:18;;;;;;;4.10;3.35;;;;;;;12.21;91.95;97231.47;4976545;28;20077;-83
2023/10/20 03:35:46;;;;;;;4.80;3.42;;;;;;;12.20;91.98;97230.66;4974381;28;20053;-82
2023/10/20 03:38:14;;;;;;;5.20;3.78;;;;;;;12.18;91.92;97241.28;4968399;28;20058;-82
2023/10/20 03:40:41;;;;;;;6.28;4.05;;;;;;;12.21;92.17;97234.97;4981703;28;20072;-83
2023/10/20 03:43:09;;;;;;;5.95;3.95;;;;;;;12.16;92.26;97248.41;4980481;28;20046;-82
2023/10/20 03:45:49;;;;;;;6.90;4.13;;;;;;;12.18;92.23;97237.81;4979104;28;20042;-82
2023/10/20 03:48:16;;;;;;;4.60;3.70;;;;;;;12.15;92.36;97225.72;4986354;28;20046;-82
2023/10/20 03:50:44;;;;;;;6.38;4.70;;;;;;;12.25;92.32;97206.66;4975571;28;20129;-83
2023/10/20 03:53:15;;;;;;;5.70;3.78;;;;;;;12.20;92.14;97211.41;4970288;28;20057;-84
2023/10/20 03:55:42;;;;;;;6.20;4.07;;;;;;;12.21;92.29;97207.81;4981792;28;20070;-82
2023/10/20 03:58:10;;;;;;;6.40;4.20;;;;;;;12.18;92.31;97193.97;4974859;28;20050;-82
2023/10/20 04:00:41;;;;;;;6.30;4.50;;;;;;;12.18;92.43;97186.06;4972979;28;20061;-82
2023/10/20 04:03:08;;;;;;;5.50;3.88;;;;;;;12.16;92.76;97173.97;4975167;28;20050;-82
2023/10/20 04:05:36;;;;;;;6.20;3.72;;;;;;;12.11;92.35;97173.50;4981963;28;20046;-83
2023/10/20 04:08:05;;;;;;;6.72;4.40;;;;;;;12.17;92.44;97171.25;4976581;28;20158;-82
2023/10/20 04:10:33;;;;;;;4.05;3.28;;;;;;;12.20;92.65;97159.66;4979690;28;20065;-84
2023/10/20 04:13:01;;;;;;;9.85;5.63;;;;;;;12.28;92.53;97143.31;4980931;28;20050;-82
2023/10/20 04:15:32;;;;;;;8.52;5.07;;;;;;;12.31;92.52;97137.81;4989474;28;20043;-82
2023/10/20 04:17:59;;;;;;;6.47;4.15;;;;;;;12.31;92.22;97124.69;4975460;28;20046;-83
2023/10/20 04:20:26;;;;;;;5.45;3.70;;;;;;;12.27;92.33;97112.75;4985903;28;20053;-84
2023/10/20 04:22:53;;;;;;;4.88;3.28;;;;;;;12.34;92.53;97104.28;4975511;28;20076;-83
2023/10/20 04:25:22;;;;;;;5.57;2.90;;;;;;;12.32;92.39;97100.91;4982640;28;20100;-83
2023/10/20 04:56:15;;;;;;;4.95;3.28;;;;;;;12.27;92.69;97028.63;4980144;28;20050;-84
2023/10/20 05:00:36;;;;;;;4.65;2.88;;;;;;;12.24;92.60;97028.81;5007880;28;20054;-86
2023/10/20 05:10:43;;;;;;;4.28;3.00;;;;;;;12.21;92.63;96987.84;4964670;28;20046;-85
2023/10/20 05:13:11;;;;;;;3.50;2.50;;;;;;;12.09;92.41;96996.66;4979774;28;20046;-82
2023/10/20 05:15:38;;;;;;;6.60;2.75;;;;;;;12.17;92.49;96976.72;4983463;28;20066;-82
2023/10/20 05:18:06;;;;;;;2.85;2.60;;;;;;;12.15;92.42;96967.28;4973079;28;20145;-82
2023/10/20 05:20:36;;;;;;;4.38;2.67;;;;;;;12.14;92.41;96966.44;4989253;28;20046;-84
2023/10/20 05:23:04;;;;;;;3.60;2.45;;;;;;;12.15;92.30;96949.75;4982320;28;20064;-82
2023/10/20 05:25:31;;;;;;;4.05;2.42;;;;;;;12.19;92.06;96945.06;4992940;28;20136;-83
2023/10/20 05:27:59;;;;;;;4.32;3.10;;;;;;;12.22;92.57;96936.13;4970882;28;20054;-85
2023/10/20 05:30:27;;;;;;;5.50;3.42;;;;;;;12.17;91.95;96929.41;4982228;28;20521;-83
2023/10/20 05:32:54;;;;;;;5.15;3.00;;;;;;;12.18;92.31;96917.97;4966473;28;20064;-82
2023/10/20 05:35:21;;;;;;;3.83;3.08;;;;;;;12.17;92.01;96904.94;4979440;28;20077;-82
2023/10/20 05:37:48;;;;;;;3.92;2.88;;;;;;;12.17;91.86;96908.38;4982198;28;20042;-84
2023/10/20 05:40:15;;;;;;;4.97;3.05;;;;;;;12.20;91.86;96890.72;4981376;28;20057;-82
2023/10/20 05:42:42;;;;;;;4.25;2.90;;;;;;;12.15;91.77;96891.91;4971133;28;20410;-82
2023/10/20 05:45:09;;;;;;;4.63;2.67;;;;;;;12.12;91.67;96893.94;4977719;28;20062;-83
2023/10/20 05:47:38;;;;;;;6.05;3.13;;;;;;;12.09;92.12;96899.44;4988912;28;20049;-82
2023/10/20 05:50:06;;;;;;;3.95;2.80;;;;;;;12.11;91.78;96887.03;4980012;28;20066;-83
2023/10/20 05:52:35;;;;;;;4.82;3.10;;;;;;;12.17;92.30;96868.97;4992089;28;20050;-83
2023/10/20 05:55:06;;;;;;;5.40;3.20;;;;;;;12.16;92.33;96862.03;4981495;28;20417;-82
2023/10/20 05:57:33;;;;;;;3.90;3.17;;;;;;;12.07;91.87;96862.75;4984948;28;20052;-82
2023/10/20 06:00:00;;;;;;;4.05;2.90;;;;;;;12.13;92.17;96849.13;4977546;28;20455;-83
2023/10/20 06:02:27;;;;;;;4.43;3.15;;;;;;;12.10;92.17;96840.66;4987070;28;20078;-83
2023/10/20 06:04:55;;;;;;;4.70;3.10;;;;;;;12.08;92.36;96846.03;4977221;28;20103;-83
2023/10/20 06:07:21;;;;;;;4.95;2.95;;;;;;;12.08;92.14;96846.03;4987965;28;20056;-84
2023/10/20 06:09:49;;;;;;;4.63;2.40;;;;;;;12.06;91.96;96847.94;4976308;28;20050;-82
2023/10/20 06:12:16;;;;;;;6.82;3.53;;;;;;;12.01;92.09;96855.34;4982433;28;20101;-83
2023/10/20 06:14:43;;;;;;;3.22;2.60;;;;;;;12.06;92.35;96840.06;4973019;28;20053;-85
2023/10/20 06:17:10;;;;;;;5.93;2.90;;;;;;;12.07;92.32;96825.97;4980433;28;20068;-83
2023/10/20 06:19:37;;;;;;;3.50;2.60;;;;;;;12.03;92.46;96806.13;4979942;28;20114;-82
2023/10/20 06:22:05;;;;;;;4.07;2.80;;;;;;;12.09;92.40;96789.88;4972884;28;20070;-82
2023/10/20 06:24:33;;;;;;;5.80;2.92;;;;;;;12.04;92.48;96781.53;4982306;28;20138;-83
2023/10/20 06:27:02;;;;;;;3.05;2.72;;;;;;;12.01;92.22;96768.66;4977001;28;20066;-84
2023/10/20 06:34:46;;;;;;;6.32;3.75;;;;;;;12.08;92.33;96743.56;4961107;28;20066;-82
2023/10/20 06:37:22;;;;;;;6.50;3.75;;;;;;;12.10;92.23;96738.16;4976708;28;20052;-82
2023/10/20 06:39:49;;;;;;;5.28;3.50;;;;;;;12.13;92.34;96717.72;4977083;28;20050;-83
2023/10/20 06:42:16;;;;;;;5.65;3.33;;;;;;;12.12;92.28;96725.72;4971882;28;20076;-82
2023/10/20 06:44:43;;;;;;;6.60;4.50;;;;;;;12.08;92.06;96719.91;4983683;28;20065;-87
2023/10/20 06:47:11;;;;;;;6.93;4.28;;;;;;;12.12;92.12;96718.69;4980277;28;20057;-83
2023/10/20 06:49:38;;;;;;;5.15;3.70;;;;;;;12.11;92.43;96718.81;4977959;28;20061;-82
2023/10/20 06:52:04;;;;;;;5.65;4.20;;;;;;;12.14;92.17;96718.56;4960028;28;20050;-83
2023/10/20 06:54:31;;;;;;;5.70;3.75;;;;;;;12.14;92.20;96708.88;4975443;28;20047;-83
2023/10/20 06:56:59;;;;;;;4.97;3.75;;;;;;;12.12;92.03;96705.56;4974497;28;20053;-82
2023/10/20 06:59:26;;;;;;;5.22;3.38;;;;;;;12.16;92.16;96696.44;4982834;28;20042;-84
2023/10/20 07:01:59;;;;;;;3.65;2.88;;;;;;;12.12;91.87;96700.31;4976812;28;20046;-85
2023/10/20 07:04:27;;;;;;;5.35;3.47;;;;;;;12.16;91.95;96691.19;4993783;28;20056;-83
2023/10/20 07:06:54;;;;;;;5.35;3.50;;;;;;;12.15;91.88;96699.19;4971253;28;20062;-82
2023/10/20 07:09:24;;;;;;;4.95;3.72;;;;;;;12.19;92.06;96711.13;4972058;28;20046;-83
2023/10/20 07:11:52;;;;;;;6.75;4.88;;;;;;;12.18;92.14;96705.06;4984052;28;20046;-83
2023/10/20 07:14:19;;;;;;;4.88;3.53;;;;;;;12.17;91.92;96695.50;4975954;28;20065;-83
2023/10/20 07:16:45;;;;;;;5.00;3.63;;;;;;;12.25;92.12;96688.78;4978616;28;20049;-82
2023/10/20 07:19:12;;;;;;;9.68;4.43;;;;;;;12.27;92.11;96687.69;4980892;28;20050;-83
2023/10/20 07:21:40;;;;;;;9.88;6.32;;;;;;;12.29;92.11;96690.19;4989463;28;20117;-84
2023/10/20 07:24:07;;;;;;;9.52;5.93;;;;;;;12.31;92.11;96685.63;4977843;28;20047;-83
2023/10/20 07:26:34;;;;;;;9.20;5.72;;;;;;;12.31;91.85;96688.25;4987294;28;20057;-83
2023/10/20 07:29:02;;;;;;;13.15;5.97;;;;;;;12.34;91.76;96688.03;4969032;28;20077;-83
2023/10/20 07:31:28;;;;;;;10.77;5.38;;;;;;;12.35;91.76;96690.53;4984607;28;20042;-83
2023/10/20 07:33:56;;;;;;;7.65;4.47;;;;;;;12.38;91.75;96694.69;4976221;28;20058;-83
2023/10/20 07:36:22;;;;;;;6.82;4.10;;;;;;;12.40;91.86;96687.53;4985655;28;20049;-83
2023/10/20 07:38:50;;;;;;;6.47;4.15;;;;;;;12.43;91.94;96691.72;4977956;28;20050;-83
2023/10/20 07:41:17;;;;;;;6.15;3.15;;;;;;;12.49;91.92;96697.28;4988866;28;20046;-83
2023/10/20 07:43:45;;;;;;;4.78;3.30;;;;;;;12.49;91.90;96701.72;4926316;28;20117;-86
2023/10/20 07:48:39;;;;;;;4.03;2.65;;;;;;;12.51;91.93;96711.16;4956785;23;20049;-83
2023/10/20 07:51:13;;;;;;;6.20;3.80;;;;;;;12.59;91.82;96728.91;4771836;29;20064;-83
2023/10/20 07:53:58;;;;;;;5.85;3.50;;;;;;;12.63;92.21;96735.59;4843223;28;20099;-85
2023/10/20 07:56:54;;;;;;;3.58;2.63;;;;;;;12.69;92.37;96734.25;4815069;23;20156;-83
2023/10/20 07:59:42;;;;;;;2.92;2.40;;;;;;;12.66;92.37;96740.59;4782545;28;20054;-83
2023/10/20 08:02:23;;;;;;;3.78;2.50;;;;;;;12.70;92.42;96743.81;4692674;28;20055;-84
2023/10/20 08:05:16;;;;;;;3.80;2.75;;;;;;;12.72;92.19;96747.16;4805075;28;20069;-83
2023/10/20 08:07:44;;;;;;;4.53;2.70;;;;;;;12.79;92.08;96748.31;4873890;23;20058;-85
2023/10/20 08:10:38;;;;;;;4.45;2.40;;;;;;;12.82;92.09;96761.22;4834756;28;20070;-83
2023/10/20 08:14:04;;;;;;;4.60;2.20;;;;;;;12.85;92.05;96762.78;4841790;28;20051;-83
2023/10/20 08:19:39;;;;;;;4.50;2.67;;;;;;;12.82;91.48;96769.13;5240813;23;19925;-84
2023/10/20 08:22:53;;;;;;;3.95;2.15;;;;;;;12.82;91.24;96794.59;4740178;28;21369;-83
2023/10/20 08:26:12;;;;;;;4.45;2.78;;;;;;;12.86;91.28;96801.25;4760622;28;20059;-83
2023/10/20 08:29:16;;;;;;;3.95;2.45;;;;;;;12.90;91.09;96805.31;5747539;23;20837;-83
2023/10/20 08:31:48;;;;;;;5.07;2.92;;;;;;;12.92;90.86;96813.06;4783679;28;20045;-83
2023/10/20 08:34:28;;;;;;;3.17;2.58;;;;;;;12.97;90.76;96822.25;4808631;28;20058;-83
2023/10/20 08:37:20;;;;;;;6.13;2.60;;;;;;;12.99;90.10;96824.75;4769900;23;20056;-82
2023/10/20 08:40:00;;;;;;;3.75;2.70;;;;;;;13.10;90.09;96827.34;4714785;29;20140;-83
2023/10/20 08:42:31;;;;;;;3.60;2.60;;;;;;;13.09;90.17;96836.19;4882211;28;20561;-83
2023/10/20 08:45:07;;;;;;;4.10;2.85;;;;;;;13.10;89.53;96840.50;4775786;28;20066;-83
2023/10/20 08:47:45;;;;;;;6.13;3.17;;;;;;;13.16;89.47;96858.44;4932969;23;20044;-85
2023/10/20 08:50:13;;;;;;;5.30;3.10;;;;;;;13.22;88.95;96863.22;4869251;28;20172;-83
2023/10/20 08:52:53;;;;;;;5.05;3.63;;;;;;;13.28;88.82;96874.16;4882801;28;20051;-85
2023/10/20 08:55:20;;;;;;;5.32;2.78;;;;;;;13.28;87.88;96882.94;4854622;28;20067;-83
2023/10/20 09:09:55;;;;;;;4.72;2.78;;;;;;;13.37;87.95;96892.72;5556165;23;20098;-83
2023/10/20 09:13:12;;;;;;;3.78;2.70;;;;;;;13.45;88.23;96897.34;4744288;29;20162;-83
2023/10/20 09:19:28;;;;;;;4.50;2.70;;;;;;;13.53;87.78;96902.81;5137075;23;20056;-85
2023/10/20 09:22:17;;;;;;;4.90;2.90;;;;;;;13.61;88.11;96888.16;4660138;28;20064;-84
2023/10/20 09:24:56;;;;;;;4.43;2.45;;;;;;;13.60;87.92;96892.59;4789807;28;20056;-84
2023/10/20 09:27:26;;;;;;;6.88;3.05;;;;;;;13.62;87.84;96889.84;4944858;28;20051;-84
2023/10/20 09:29:56;;;;;;;3.38;2.47;;;;;;;13.68;87.49;96873.50;4954649;28;20047;-83
2023/10/20 09:32:23;;;;;;;4.45;2.97;;;;;;;13.71;87.81;96867.97;4945770;28;20055;-83
2023/10/20 09:34:50;;;;;;;4.20;3.03;;;;;;;13.79;88.39;96859.41;4930796;28;20131;-83
2023/10/20 09:37:23;;;;;;;4.35;2.92;;;;;;;13.86;88.54;96864.06;4944358;28;20042;-83
2023/10/20 09:39:54;;;;;;;5.15;3.28;;;;;;;13.95;88.54;96861.56;4951478;28;20038;-83
2023/10/20 09:42:24;;;;;;;4.75;3.22;;;;;;;13.98;88.62;96863.97;4954236;28;20047;-83
2023/10/20 09:45:09;;;;;;;4.55;2.67;;;;;;;13.84;87.95;96876.50;4955676;28;20138;-85
2023/10/20 09:47:36;;;;;;;5.13;3.13;;;;;;;13.87;87.49;96875.41;4952956;28;20458;-83
2023/10/20 09:50:05;;;;;;;4.55;3.13;;;;;;;13.87;87.23;96873.59;4958160;28;21514;-83
2023/10/20 09:52:33;;;;;;;4.40;2.80;;;;;;;13.91;87.27;96887.38;4964590;28;20039;-84
2023/10/20 09:55:01;;;;;;;5.15;3.17;;;;;;;13.94;87.11;96879.19;4948354;28;20054;-83
2023/10/20 09:57:28;;;;;;;5.35;3.70;;;;;;;14.23;87.74;96883.78;4963150;28;20085;-84
2023/10/20 09:59:55;;;;;;;5.38;3.67;;;;;;;14.31;87.91;96883.09;4960716;28;20059;-83
2023/10/20 10:02:31;;;;;;;6.07;3.60;;;;;;;14.33;87.73;96894.38;4965784;28;20051;-83
2023/10/20 10:05:00;;;;;;;5.65;3.38;;;;;;;14.49;88.25;96886.78;4950117;28;20054;-83
2023/10/20 10:07:33;;;;;;;6.03;3.95;;;;;;;14.59;88.58;96889.44;4959816;28;20050;-83
2023/10/20 10:10:02;;;;;;;5.88;3.58;;;;;;;14.35;87.61;96892.41;4928409;28;20227;-83
2023/10/20 10:12:32;;;;;;;5.00;3.60;;;;;;;14.32;86.99;96898.78;4966634;28;20047;-83
2023/10/20 10:15:07;;;;;;;7.60;3.58;;;;;;;14.43;87.03;96905.78;4943089;28;20050;-84
2023/10/20 10:17:45;;;;;;;5.28;3.03;;;;;;;14.57;87.41;96908.06;4958987;28;20098;-83
2023/10/20 10:20:23;;;;;;;5.68;3.38;;;;;;;14.59;87.46;96905.28;4945509;28;20051;-84
2023/10/20 10:23:04;;;;;;;4.32;3.25;;;;;;;14.59;87.11;96892.91;4935483;28;20047;-83
2023/10/20 10:25:53;;;;;;;4.82;3.55;;;;;;;14.71;87.52;96908.66;4955297;28;20106;-84
2023/10/20 10:28:21;;;;;;;4.35;3.58;;;;;;;14.65;87.24;96903.94;4940291;28;20047;-83
2023/10/20 10:30:54;;;;;;;5.22;3.65;;;;;;;14.55;87.52;96909.16;4940684;28;20098;-83
2023/10/20 10:33:22;;;;;;;4.95;3.70;;;;;;;14.57;87.71;96921.25;4950943;28;20047;-83
2023/10/20 10:36:01;;;;;;;5.43;3.58;;;;;;;14.68;87.87;96914.22;4954686;28;20074;-83
2023/10/20 10:38:29;;;;;;;4.82;3.47;;;;;;;14.63;87.27;96916.41;4957571;28;20050;-83
2023/10/20 10:40:58;;;;;;;5.38;3.45;;;;;;;14.59;87.56;96914.00;4945241;28;20055;-83
2023/10/20 10:43:24;;;;;;;4.43;3.47;;;;;;;14.74;87.41;96913.66;4948418;28;20054;-83
2023/10/20 10:45:52;;;;;;;4.38;3.22;;;;;;;14.80;86.81;96905.19;4929538;28;20044;-83
2023/10/20 10:48:24;;;;;;;5.40;3.63;;;;;;;14.80;87.65;96909.66;4942608;28;20129;-83
2023/10/20 10:50:51;;;;;;;5.20;3.20;;;;;;;14.94;87.24;96909.28;4954704;28;20043;-83
2023/10/20 10:53:18;;;;;;;5.03;3.63;;;;;;;15.13;87.03;96898.75;4942897;28;20051;-83
2023/10/20 10:55:45;;;;;;;5.40;3.60;;;;;;;15.21;87.13;96900.69;4948468;28;20051;-84
2023/10/20 10:58:14;;;;;;;5.50;3.42;;;;;;;15.21;86.66;96899.84;4942270;28;20051;-84
2023/10/20 11:00:44;;;;;;;5.43;3.53;;;;;;;15.09;86.56;96886.78;4945540;28;20066;-83
2023/10/20 11:03:13;;;;;;;6.85;3.13;;;;;;;15.17;85.14;96883.44;4954458;28;20074;-83
2023/10/20 11:05:41;;;;;;;6.82;3.40;;;;;;;15.88;85.97;96882.28;4944869;28;20050;-84
2023/10/20 11:08:11;;;;;;;4.80;3.08;;;;;;;15.77;84.73;96864.75;4949199;28;20047;-84
2023/10/20 11:10:45;;;;;;;3.78;3.15;;;;;;;15.60;84.89;96863.66;4943566;28;20102;-86
2023/10/20 11:13:15;;;;;;;4.35;2.65;;;;;;;15.43;84.22;96882.88;4950194;28;20141;-84
2023/10/20 11:15:43;;;;;;;3.80;2.60;;;;;;;15.78;84.81;96876.16;4951917;28;20042;-84
2023/10/20 11:18:10;;;;;;;2.75;2.50;;;;;;;15.67;83.91;96889.50;4949425;28;20054;-85
2023/10/20 11:20:41;;;;;;;3.45;2.42;;;;;;;15.82;83.15;96896.88;4931459;28;20410;-85
2023/10/20 11:23:08;;;;;;;3.70;1.92;;;;;;;15.62;82.04;96903.16;4947824;28;20047;-83
2023/10/20 11:25:40;;;;;;;2.63;2.25;;;;;;;15.61;83.50;96897.06;4957025;28;20116;-83
2023/10/20 11:28:07;;;;;;;2.90;2.15;;;;;;;16.05;83.35;96890.44;4930956;28;20133;-84
2023/10/20 11:30:38;;;;;;;2.53;2.15;;;;;;;15.91;82.32;96891.72;4950882;28;20493;-84
2023/10/20 11:33:06;;;;;;;2.70;2.10;;;;;;;16.06;82.74;96890.31;4946053;28;20059;-83
2023/10/20 11:35:33;;;;;;;3.25;1.90;;;;;;;15.98;82.75;96898.94;4960546;28;20055;-83
2023/10/20 11:38:00;;;;;;;3.25;1.90;;;;;;;16.02;82.03;96894.22;4939777;28;20498;-83
2023/10/20 11:40:28;;;;;;;4.28;1.50;;;;;;;16.05;81.67;96899.22;4955203;28;20055;-83
2023/10/20 11:42:57;;;;;;;1.75;1.40;;;;;;;16.17;82.63;96899.88;4954604;28;20085;-83
2023/10/20 11:45:24;;;;;;;2.63;1.58;;;;;;;16.50;81.74;96884.41;4948731;28;20054;-84
2023/10/20 11:47:51;;;;;;;2.83;1.60;;;;;;;16.74;80.98;96883.03;4951929;28;20116;-84
2023/10/20 11:50:23;;;;;;;2.35;1.40;;;;;;;17.12;80.96;96889.06;4952951;28;20051;-83
2023/10/20 11:52:51;;;;;;;1.63;0.98;;;;;;;16.93;79.51;96909.41;4929364;28;20062;-83
2023/10/20 11:55:21;;;;;;;1.40;0.80;;;;;;;17.17;79.99;96897.41;4953620;28;20051;-84
2023/10/20 11:57:48;;;;;;;1.20;0.82;;;;;;;16.85;80.90;96906.66;4936490;28;20052;-83
2023/10/20 12:00:21;;;;;;;0.70;0.60;;;;;;;16.56;80.55;96918.22;4932761;28;20047;-84
2023/10/20 12:02:49;;;;;;;1.35;0.70;;;;;;;16.41;80.43;96923.16;4936682;28;20053;-84
2023/10/20 12:05:16;;;;;;;2.80;0.80;;;;;;;16.47;80.30;96919.13;4954486;28;20138;-83
2023/10/20 12:07:43;;;;;;;1.00;0.55;;;;;;;16.41;80.44;96936.41;4937874;28;20078;-84
2023/10/20 12:10:10;;;;;;;1.45;0.75;;;;;;;16.33;80.42;96939.75;4941247;28;20072;-83
2023/10/20 12:12:38;;;;;;;0.52;0.52;;;;;;;16.27;80.46;96945.63;4954971;28;20429;-83
2023/10/20 12:15:07;;;;;;;0.85;0.77;;;;;;;16.31;81.12;96951.47;4951780;28;20050;-84
2023/10/20 12:17:35;;;;;;;0.77;0.57;;;;;;;16.21;80.92;96951.50;4952135;28;20046;-83
2023/10/20 12:20:02;;;;;;;0.63;0.40;;;;;;;16.25;80.39;96963.47;4953105;28;20050;-84
2023/10/20 12:22:29;;;;;;;0.57;0.57;;;;;;;16.25;80.25;96958.19;4949911;28;20051;-85
2023/10/20 12:24:56;;;;;;;0.60;0.50;;;;;;;16.27;80.26;96972.09;4951266;28;20076;-83
2023/10/20 12:27:24;;;;;;;1.50;0.63;;;;;;;16.29;80.40;96978.09;4958074;28;20074;-84
2023/10/20 12:29:51;;;;;;;0.82;0.70;;;;;;;16.25;80.39;96979.34;4940386;28;20097;-84
2023/10/20 12:32:18;;;;;;;0.50;0.50;;;;;;;16.23;80.07;96976.00;4938152;28;20082;-85
2023/10/20 12:34:45;;;;;;;0.60;0.60;;;;;;;16.29;79.72;96974.59;4964978;28;20069;-84
2023/10/20 12:37:12;;;;;;;0.85;0.60;;;;;;;16.31;80.43;96967.34;4958063;28;20054;-84
2023/10/20 12:39:39;;;;;;;2.05;0.63;;;;;;;16.36;79.45;96965.09;4948415;28;20047;-85
2023/10/20 12:42:07;;;;;;;0.68;0.47;;;;;;;16.34;79.42;96973.19;4944502;28;20055;-85
2023/10/20 12:44:34;;;;;;;0.30;0.30;;;;;;;16.32;78.96;96975.16;4959352;28;20047;-85
2023/10/20 12:47:02;;;;;;;0.40;0.40;;;;;;;16.31;78.67;96976.13;4946901;28;20085;-85
2023/10/20 12:49:28;;;;;;;1.35;0.47;;;;;;;16.36;79.32;96973.03;4973151;28;20094;-85
2023/10/20 12:51:55;;;;;;;0.98;0.30;;;;;;;16.18;79.33;96986.19;4943525;28;20058;-85